Time;durP1;ratioP1;P1;durP2;ratioP2;P2;SDS_P1;SDS_P2;PMS_P1;PMS_P2;Temp;Humidity;BMP_temperature;BMP_pressure;BME280_temperature;BME280_humidity;BME280_pressure;Samples;Min_cycle;Max_cycle;Signal;HPM_P1;HPM_P2
2022/05/18 00:01:09;;;;;;;;;;;13.70;81.80;;;;;;5032617;28;19909;-67
2022/05/18 00:03:38;;;;;;;;;;;13.80;82.40;;;;;;5031068;28;19927;-67
2022/05/18 00:06:05;;;;;;;;;;;13.90;78.30;;;;;;5031415;28;19908;-67
2022/05/18 00:08:38;;;;;;;;;;;14.10;77.40;;;;;;5014710;28;19972;-67
2022/05/18 00:11:06;;;;;;;;;;;14.30;73.20;;;;;;5028374;28;19941;-67
2022/05/18 00:13:33;;;;;;;;;;;14.50;71.60;;;;;;5028023;28;20270;-68
2022/05/18 00:16:00;;;;;;;;;;;14.60;69.80;;;;;;5029143;28;19913;-68
2022/05/18 00:18:26;;;;;;;;;;;14.80;66.80;;;;;;5018183;28;19913;-67
2022/05/18 00:20:53;;;;;;;;;;;15.00;68.30;;;;;;5019012;28;19962;-68
2022/05/18 00:23:19;;;;;;;;;;;15.00;65.00;;;;;;5025192;28;19952;-66
2022/05/18 00:25:46;;;;;;;;;;;15.10;61.80;;;;;;5022405;28;19963;-67
2022/05/18 00:28:13;;;;;;;;;;;15.20;64.20;;;;;;5011361;28;20374;-67
2022/05/18 00:30:40;;;;;;;;;;;15.30;65.00;;;;;;5018463;28;19909;-68
2022/05/18 00:33:08;;;;;;;;;;;15.40;63.10;;;;;;5018201;28;19913;-68
2022/05/18 00:35:35;;;;;;;;;;;15.50;64.00;;;;;;5019758;28;19919;-66
2022/05/18 00:38:03;;;;;;;;;;;15.60;62.10;;;;;;5017581;28;19960;-67
2022/05/18 00:40:30;;;;;;;;;;;15.70;61.70;;;;;;5020842;28;19916;-67
2022/05/18 00:42:56;;;;;;;;;;;15.80;60.70;;;;;;5018269;28;20270;-67
2022/05/18 00:45:23;;;;;;;;;;;15.90;61.00;;;;;;5018598;28;19999;-67
2022/05/18 00:47:50;;;;;;;;;;;16.00;61.60;;;;;;5013197;28;20011;-68
2022/05/18 00:50:22;;;;;;;;;;;16.10;63.70;;;;;;5021239;28;19995;-68
2022/05/18 00:52:59;;;;;;;;;;;16.10;59.30;;;;;;5018964;28;19913;-67
2022/05/18 00:55:27;;;;;;;;;;;16.30;60.50;;;;;;5018024;28;19913;-68
2022/05/18 00:58:03;;;;;;;;;;;16.50;60.00;;;;;;5018589;28;19917;-68
2022/05/18 01:00:30;;;;;;;;;;;16.50;59.40;;;;;;5019932;28;20421;-68
2022/05/18 01:02:59;;;;;;;;;;;16.70;60.00;;;;;;5022255;28;20003;-67
2022/05/18 01:05:30;;;;;;;;;;;16.80;58.70;;;;;;5014306;28;19916;-66
2022/05/18 01:07:58;;;;;;;;;;;17.00;60.30;;;;;;5018261;28;19935;-67
2022/05/18 01:10:26;;;;;;;;;;;17.20;58.00;;;;;;5017403;28;19917;-68
2022/05/18 01:12:53;;;;;;;;;;;17.30;58.30;;;;;;5020064;28;19913;-68
2022/05/18 01:15:21;;;;;;;;;;;17.40;58.50;;;;;;5028604;28;19970;-67
2022/05/18 01:17:49;;;;;;;;;;;17.40;57.40;;;;;;5014969;28;19921;-67
2022/05/18 01:20:23;;;;;;;;;;;17.50;59.00;;;;;;5023951;28;19956;-67
2022/05/18 01:23:09;;;;;;;;;;;17.50;58.20;;;;;;5024479;28;20386;-67
2022/05/18 01:25:36;;;;;;;;;;;17.70;57.80;;;;;;5016961;28;19988;-67
2022/05/18 01:28:04;;;;;;;;;;;17.80;55.80;;;;;;5013244;28;19906;-67
2022/05/18 01:30:31;;;;;;;;;;;17.80;57.10;;;;;;5025552;28;19910;-67
2022/05/18 01:32:58;;;;;;;;;;;17.90;57.50;;;;;;5019540;28;19910;-67
2022/05/18 01:35:29;;;;;;;;;;;17.90;56.70;;;;;;5022677;28;19909;-67
2022/05/18 01:37:59;;;;;;;;;;;17.90;57.00;;;;;;5013215;28;20370;-68
2022/05/18 01:40:30;;;;;;;;;;;17.90;57.00;;;;;;5013241;28;19909;-68
2022/05/18 01:43:22;;;;;;;;;;;18.10;56.60;;;;;;5016160;28;20457;-67
2022/05/18 01:45:56;;;;;;;;;;;18.10;56.30;;;;;;5018015;28;20353;-67
2022/05/18 01:48:25;;;;;;;;;;;18.20;56.40;;;;;;5023022;28;19916;-67
2022/05/18 01:50:52;;;;;;;;;;;18.30;55.50;;;;;;5022395;28;19909;-69
2022/05/18 01:53:18;;;;;;;;;;;18.40;56.40;;;;;;5016623;28;19913;-67
2022/05/18 01:55:45;;;;;;;;;;;18.50;56.40;;;;;;5025798;28;20405;-68
2022/05/18 01:58:13;;;;;;;;;;;18.50;55.20;;;;;;5025491;28;19912;-67
2022/05/18 02:00:40;;;;;;;;;;;18.50;54.10;;;;;;5019446;28;19920;-66
2022/05/18 02:03:07;;;;;;;;;;;18.40;53.20;;;;;;5023957;28;19955;-67
2022/05/18 02:05:36;;;;;;;;;;;18.40;55.00;;;;;;5024166;28;19917;-68
2022/05/18 02:08:04;;;;;;;;;;;18.50;56.30;;;;;;5021592;28;20566;-67
2022/05/18 02:10:31;;;;;;;;;;;18.60;56.90;;;;;;5020644;28;19909;-69
2022/05/18 02:12:57;;;;;;;;;;;18.70;55.30;;;;;;5015885;28;20426;-67
2022/05/18 02:15:24;;;;;;;;;;;18.80;54.60;;;;;;5021406;28;19913;-66
2022/05/18 02:17:51;;;;;;;;;;;18.90;54.30;;;;;;5015531;28;19925;-66
2022/05/18 02:20:19;;;;;;;;;;;19.00;55.90;;;;;;5023370;28;19955;-69
2022/05/18 02:22:45;;;;;;;;;;;19.00;55.50;;;;;;5015568;28;19956;-65
2022/05/18 02:25:12;;;;;;;;;;;19.10;54.70;;;;;;5024196;28;20277;-64
2022/05/18 02:27:39;;;;;;;;;;;19.20;56.00;;;;;;5025615;28;19913;-65
2022/05/18 02:30:07;;;;;;;;;;;19.20;54.80;;;;;;5021198;28;20059;-64
2022/05/18 02:32:34;;;;;;;;;;;19.30;54.10;;;;;;5020732;28;19920;-64
2022/05/18 02:35:00;;;;;;;;;;;19.20;52.20;;;;;;5010077;28;19913;-64
2022/05/18 02:37:27;;;;;;;;;;;19.20;52.10;;;;;;5015080;28;20336;-64
2022/05/18 02:39:54;;;;;;;;;;;19.20;52.80;;;;;;5019895;28;19913;-64
2022/05/18 02:42:20;;;;;;;;;;;19.30;53.10;;;;;;5018542;28;19928;-65
2022/05/18 02:44:47;;;;;;;;;;;19.40;54.30;;;;;;5012898;28;19913;-62
2022/05/18 02:47:15;;;;;;;;;;;19.40;53.50;;;;;;5024076;28;19913;-64
2022/05/18 02:49:41;;;;;;;;;;;19.40;52.30;;;;;;5022931;28;20377;-64
2022/05/18 02:52:08;;;;;;;;;;;19.30;52.10;;;;;;5017605;28;19913;-63
2022/05/18 02:57:19;;;;;;;;;;;19.30;48.90;;;;;;5030346;28;19924;-63
2022/05/18 02:59:46;;;;;;;;;;;19.00;49.00;;;;;;5026060;28;19944;-63
2022/05/18 03:02:13;;;;;;;;;;;19.00;53.70;;;;;;5028426;28;19992;-64
2022/05/18 03:04:40;;;;;;;;;;;19.00;50.70;;;;;;5023784;28;19909;-63
2022/05/18 03:07:06;;;;;;;;;;;18.80;51.90;;;;;;5031768;28;20051;-64
2022/05/18 03:09:33;;;;;;;;;;;19.00;53.40;;;;;;5023823;28;19909;-64
2022/05/18 03:11:59;;;;;;;;;;;19.00;53.80;;;;;;5024105;28;19915;-64
2022/05/18 03:14:26;;;;;;;;;;;19.10;53.80;;;;;;5028691;28;19914;-63
2022/05/18 03:16:53;;;;;;;;;;;19.20;52.70;;;;;;5023169;28;20433;-63
2022/05/18 03:19:20;;;;;;;;;;;19.20;51.40;;;;;;5018803;28;19909;-63
2022/05/18 03:24:31;;;;;;;;;;;19.10;50.50;;;;;;5015608;28;19923;-64
2022/05/18 03:26:58;;;;;;;;;;;19.30;53.10;;;;;;5023117;28;19909;-63
2022/05/18 03:29:24;;;;;;;;;;;19.40;52.70;;;;;;5019604;28;19919;-64
2022/05/18 03:31:51;;;;;;;;;;;19.40;54.00;;;;;;5026449;28;19913;-64
2022/05/18 03:34:18;;;;;;;;;;;19.40;52.00;;;;;;5014806;28;19913;-64
2022/05/18 03:36:44;;;;;;;;;;;19.40;51.90;;;;;;5030482;28;19959;-64
2022/05/18 03:39:11;;;;;;;;;;;19.20;48.90;;;;;;5022646;28;19916;-64
2022/05/18 03:41:39;;;;;;;;;;;19.10;52.30;;;;;;5022887;28;19909;-64
2022/05/18 03:44:06;;;;;;;;;;;19.20;52.70;;;;;;5020008;28;19921;-64
2022/05/18 03:46:33;;;;;;;;;;;19.30;50.60;;;;;;5022403;28;20354;-64
2022/05/18 03:49:00;;;;;;;;;;;19.30;51.00;;;;;;5017260;28;20392;-65
2022/05/18 03:51:27;;;;;;;;;;;19.40;52.20;;;;;;5030565;28;19909;-65
2022/05/18 03:53:54;;;;;;;;;;;19.50;52.00;;;;;;5028489;28;20258;-65
2022/05/18 03:56:20;;;;;;;;;;;19.50;48.70;;;;;;5028957;28;19909;-64
2022/05/18 03:58:47;;;;;;;;;;;19.40;50.10;;;;;;5024584;28;20294;-64
2022/05/18 04:01:13;;;;;;;;;;;19.50;50.90;;;;;;5021594;28;19909;-64
2022/05/18 04:03:42;;;;;;;;;;;19.50;49.80;;;;;;5026007;28;19913;-64
2022/05/18 04:06:09;;;;;;;;;;;19.50;50.80;;;;;;5020813;28;20007;-64
2022/05/18 04:08:36;;;;;;;;;;;19.60;50.70;;;;;;5022819;28;19967;-64
2022/05/18 04:11:03;;;;;;;;;;;19.60;49.50;;;;;;5029708;28;20304;-64
2022/05/18 04:13:31;;;;;;;;;;;19.60;50.00;;;;;;5023561;28;19987;-64
2022/05/18 04:15:58;;;;;;;;;;;19.60;49.10;;;;;;5031601;28;20483;-64
2022/05/18 04:18:25;;;;;;;;;;;19.50;49.10;;;;;;5015392;28;19913;-64
2022/05/18 04:20:53;;;;;;;;;;;19.40;50.10;;;;;;5027300;28;19909;-64
2022/05/18 04:23:20;;;;;;;;;;;19.50;50.40;;;;;;5025268;28;19975;-63
2022/05/18 04:25:46;;;;;;;;;;;19.50;49.20;;;;;;5028103;28;19909;-63
2022/05/18 04:28:14;;;;;;;;;;;19.50;49.30;;;;;;5027492;28;19909;-63
2022/05/18 04:30:42;;;;;;;;;;;19.50;48.60;;;;;;5019471;28;19913;-64
2022/05/18 04:33:10;;;;;;;;;;;19.60;50.00;;;;;;5029375;28;19916;-64
2022/05/18 04:35:36;;;;;;;;;;;19.60;50.00;;;;;;5017982;28;20437;-64
2022/05/18 04:38:03;;;;;;;;;;;19.60;49.50;;;;;;5025976;28;20000;-63
2022/05/18 04:40:29;;;;;;;;;;;19.50;49.10;;;;;;5018879;28;20527;-64
2022/05/18 04:42:56;;;;;;;;;;;19.40;50.60;;;;;;5019872;28;19910;-65
2022/05/18 04:45:23;;;;;;;;;;;19.30;49.30;;;;;;5026199;28;19950;-64
2022/05/18 04:47:50;;;;;;;;;;;19.20;49.90;;;;;;5023436;28;19909;-64
2022/05/18 04:50:18;;;;;;;;;;;19.20;51.50;;;;;;5026379;28;19913;-64
2022/05/18 04:52:44;;;;;;;;;;;19.10;52.10;;;;;;5025767;28;19996;-64
2022/05/18 04:55:11;;;;;;;;;;;19.10;51.70;;;;;;5041769;28;20011;-64
2022/05/18 04:57:38;;;;;;;;;;;19.00;50.00;;;;;;5022708;28;20393;-63
2022/05/18 05:00:06;;;;;;;;;;;18.90;51.10;;;;;;5014739;28;20002;-63
2022/05/18 05:02:36;;;;;;;;;;;18.70;51.70;;;;;;5024357;28;19909;-63
2022/05/18 05:05:05;;;;;;;;;;;18.50;52.90;;;;;;5015000;28;19910;-63
2022/05/18 05:07:32;;;;;;;;;;;18.30;52.80;;;;;;5015853;28;19963;-64
2022/05/18 05:10:02;;;;;;;;;;;18.20;52.50;;;;;;5022636;28;19944;-63
2022/05/18 05:12:29;;;;;;;;;;;18.10;52.80;;;;;;5026538;28;20425;-62
2022/05/18 05:14:55;;;;;;;;;;;18.00;53.10;;;;;;5023269;28;20431;-63
2022/05/18 05:17:22;;;;;;;;;;;18.00;53.50;;;;;;5018818;28;19917;-63
2022/05/18 05:19:48;;;;;;;;;;;18.10;53.20;;;;;;5022730;28;19913;-63
2022/05/18 05:22:15;;;;;;;;;;;18.00;53.10;;;;;;5023530;28;19913;-63
2022/05/18 05:24:43;;;;;;;;;;;18.00;53.10;;;;;;5024410;28;19913;-63
2022/05/18 05:27:09;;;;;;;;;;;18.00;53.50;;;;;;5020248;28;20007;-62
2022/05/18 05:29:36;;;;;;;;;;;17.90;54.90;;;;;;5026812;28;19948;-63
2022/05/18 05:32:07;;;;;;;;;;;18.00;54.20;;;;;;5013712;28;19937;-63
2022/05/18 05:34:34;;;;;;;;;;;18.10;52.80;;;;;;5018778;28;19983;-63
2022/05/18 05:37:01;;;;;;;;;;;17.90;54.40;;;;;;5023248;28;19967;-63
2022/05/18 05:39:27;;;;;;;;;;;17.70;54.30;;;;;;5025474;28;19913;-62
2022/05/18 05:41:54;;;;;;;;;;;17.60;54.90;;;;;;5024841;28;20003;-63
2022/05/18 05:44:21;;;;;;;;;;;17.50;54.20;;;;;;5023149;28;19921;-62
2022/05/18 05:46:47;;;;;;;;;;;17.40;54.80;;;;;;5012827;28;19913;-63
2022/05/18 05:49:14;;;;;;;;;;;17.30;54.90;;;;;;5020540;28;20019;-63
2022/05/18 05:51:41;;;;;;;;;;;17.30;54.90;;;;;;5015768;28;19963;-63
2022/05/18 05:54:08;;;;;;;;;;;17.20;55.20;;;;;;5028119;28;19905;-63
2022/05/18 05:56:34;;;;;;;;;;;17.20;56.50;;;;;;5018396;28;20366;-62
2022/05/18 05:59:01;;;;;;;;;;;17.20;55.10;;;;;;5018644;28;20250;-63
2022/05/18 06:01:27;;;;;;;;;;;17.20;54.50;;;;;;5017355;28;19909;-63
2022/05/18 06:03:54;;;;;;;;;;;17.30;53.50;;;;;;5021790;28;19913;-63
2022/05/18 06:06:21;;;;;;;;;;;17.30;53.60;;;;;;5021074;28;19909;-63
2022/05/18 06:08:50;;;;;;;;;;;17.40;53.30;;;;;;5013934;28;19936;-63
2022/05/18 06:11:17;;;;;;;;;;;17.40;52.60;;;;;;5025839;28;19916;-63
2022/05/18 06:13:43;;;;;;;;;;;17.40;53.10;;;;;;5014623;28;20588;-63
2022/05/18 06:16:10;;;;;;;;;;;17.30;53.80;;;;;;5011965;28;19909;-64
2022/05/18 06:18:38;;;;;;;;;;;17.30;53.90;;;;;;5023514;28;20356;-63
2022/05/18 06:21:05;;;;;;;;;;;17.20;53.40;;;;;;5018029;28;19906;-63
2022/05/18 06:23:32;;;;;;;;;;;17.20;53.00;;;;;;5018528;28;20380;-64
2022/05/18 06:26:02;;;;;;;;;;;17.20;53.40;;;;;;5026900;28;20460;-63
2022/05/18 06:28:29;;;;;;;;;;;17.10;53.50;;;;;;5028795;28;19940;-63
2022/05/18 06:30:55;;;;;;;;;;;17.10;53.80;;;;;;5031431;28;19909;-63
2022/05/18 06:33:22;;;;;;;;;;;16.90;54.30;;;;;;5009195;28;19992;-60
2022/05/18 06:35:51;;;;;;;;;;;16.80;54.40;;;;;;5031356;28;19913;-60
2022/05/18 06:38:19;;;;;;;;;;;16.70;53.90;;;;;;5028209;28;19967;-60
2022/05/18 06:43:30;;;;;;;;;;;16.60;54.40;;;;;;5022739;28;20085;-60
2022/05/18 06:45:57;;;;;;;;;;;16.60;54.70;;;;;;5027777;28;19905;-59
2022/05/18 06:48:24;;;;;;;;;;;16.50;54.90;;;;;;5029367;28;19960;-57
2022/05/18 06:50:50;;;;;;;;;;;16.40;55.20;;;;;;5021671;28;19920;-59
2022/05/18 06:53:17;;;;;;;;;;;16.30;54.80;;;;;;5023916;28;20004;-60
2022/05/18 06:55:44;;;;;;;;;;;16.30;54.30;;;;;;5018642;28;20416;-59
2022/05/18 06:58:10;;;;;;;;;;;16.20;54.80;;;;;;5024037;28;20699;-61
2022/05/18 07:00:37;;;;;;;;;;;16.10;55.40;;;;;;5027164;28;20469;-60
2022/05/18 07:03:04;;;;;;;;;;;15.90;55.50;;;;;;5015967;28;19914;-60
2022/05/18 07:05:31;;;;;;;;;;;15.90;55.90;;;;;;5020465;28;19924;-60
2022/05/18 07:07:58;;;;;;;;;;;15.70;56.30;;;;;;5013847;28;19931;-60
2022/05/18 07:10:27;;;;;;;;;;;15.70;56.50;;;;;;5025548;28;19913;-60
2022/05/18 07:12:53;;;;;;;;;;;15.50;56.40;;;;;;5018067;28;19917;-60
2022/05/18 07:15:20;;;;;;;;;;;15.50;56.70;;;;;;5022420;28;19954;-60
2022/05/18 07:17:47;;;;;;;;;;;15.30;57.60;;;;;;5016505;28;19953;-62
2022/05/18 07:20:14;;;;;;;;;;;15.10;58.20;;;;;;5017231;28;19917;-60
2022/05/18 07:22:40;;;;;;;;;;;14.90;58.90;;;;;;5030771;28;19913;-61
2022/05/18 07:25:07;;;;;;;;;;;14.80;59.10;;;;;;5027366;28;19972;-61
2022/05/18 07:27:34;;;;;;;;;;;14.80;58.90;;;;;;5028933;28;19920;-61
2022/05/18 07:30:02;;;;;;;;;;;14.90;58.30;;;;;;5030637;28;19913;-61
2022/05/18 07:32:29;;;;;;;;;;;14.90;59.40;;;;;;5028071;28;19914;-59
2022/05/18 07:34:56;;;;;;;;;;;14.80;59.30;;;;;;5024433;28;19905;-60
2022/05/18 07:37:23;;;;;;;;;;;14.70;61.00;;;;;;5024214;28;19917;-60
2022/05/18 07:39:50;;;;;;;;;;;14.70;59.50;;;;;;5020907;28;20369;-60
2022/05/18 07:42:17;;;;;;;;;;;14.70;59.90;;;;;;5026251;28;19916;-60
2022/05/18 07:44:44;;;;;;;;;;;14.60;59.20;;;;;;5028069;28;20397;-61
2022/05/18 07:47:11;;;;;;;;;;;14.70;59.30;;;;;;5027218;28;19917;-60
2022/05/18 07:49:39;;;;;;;;;;;14.60;58.40;;;;;;5027259;28;19913;-60
2022/05/18 07:52:06;;;;;;;;;;;14.70;57.50;;;;;;5023314;28;19916;-61
2022/05/18 07:54:32;;;;;;;;;;;14.70;58.10;;;;;;5017708;28;19988;-59
2022/05/18 07:56:59;;;;;;;;;;;14.60;58.60;;;;;;5029403;28;19925;-59
2022/05/18 07:59:26;;;;;;;;;;;14.50;58.80;;;;;;5022945;28;19916;-60
2022/05/18 08:01:52;;;;;;;;;;;14.30;59.10;;;;;;5024603;28;19920;-58
2022/05/18 08:04:19;;;;;;;;;;;14.10;59.90;;;;;;5024258;28;20458;-58
2022/05/18 08:06:46;;;;;;;;;;;14.00;60.70;;;;;;5028221;28;19959;-58
2022/05/18 08:09:13;;;;;;;;;;;13.90;61.70;;;;;;5024908;28;19925;-59
2022/05/18 08:17:09;;;;;;;;;;;14.00;61.40;;;;;;5017830;28;19928;-60
2022/05/18 08:19:36;;;;;;;;;;;14.00;61.30;;;;;;5022816;28;19967;-60
2022/05/18 08:22:02;;;;;;;;;;;14.00;62.10;;;;;;5024928;28;19916;-60
2022/05/18 08:24:29;;;;;;;;;;;14.00;61.60;;;;;;5019595;28;20373;-59
2022/05/18 08:26:56;;;;;;;;;;;14.00;61.50;;;;;;5027115;28;19909;-59
2022/05/18 08:29:22;;;;;;;;;;;14.00;61.90;;;;;;5030382;28;19940;-59
2022/05/18 08:31:49;;;;;;;;;;;14.00;62.30;;;;;;5027801;28;19916;-59
2022/05/18 08:34:16;;;;;;;;;;;14.00;63.10;;;;;;5019745;28;19916;-59
2022/05/18 08:36:42;;;;;;;;;;;14.00;62.70;;;;;;5020289;28;19952;-58
2022/05/18 08:39:09;;;;;;;;;;;14.00;62.70;;;;;;5019661;28;19916;-63
2022/05/18 08:41:39;;;;;;;;;;;14.00;62.60;;;;;;5025614;28;19912;-59
2022/05/18 08:44:07;;;;;;;;;;;14.10;63.10;;;;;;5027087;28;19913;-60
2022/05/18 08:46:39;;;;;;;;;;;14.10;63.80;;;;;;5027951;28;19923;-60
2022/05/18 08:49:14;;;;;;;;;;;14.10;63.00;;;;;;5027709;28;19917;-58
2022/05/18 08:51:41;;;;;;;;;;;14.10;62.80;;;;;;5025237;28;20286;-59
2022/05/18 08:54:07;;;;;;;;;;;14.30;61.70;;;;;;5012140;28;19905;-59
2022/05/18 08:56:37;;;;;;;;;;;14.40;61.60;;;;;;5024168;28;19916;-59
2022/05/18 08:59:07;;;;;;;;;;;14.30;62.00;;;;;;5018116;28;19921;-59
2022/05/18 09:01:40;;;;;;;;;;;14.20;62.40;;;;;;5028020;28;19909;-60
2022/05/18 09:04:10;;;;;;;;;;;14.20;62.40;;;;;;5025836;28;19912;-60
2022/05/18 09:06:49;;;;;;;;;;;14.30;62.10;;;;;;5013304;28;19909;-59
2022/05/18 09:12:06;;;;;;;;;;;14.10;62.60;;;;;;5013152;28;19911;-59
2022/05/18 09:14:39;;;;;;;;;;;13.90;62.60;;;;;;5024015;28;19906;-59
2022/05/18 09:17:12;;;;;;;;;;;13.70;63.80;;;;;;5018516;28;19917;-59
2022/05/18 09:19:57;;;;;;;;;;;13.60;64.60;;;;;;5028929;28;19905;-59
2022/05/18 09:22:39;;;;;;;;;;;13.40;64.90;;;;;;5014149;28;19919;-59
2022/05/18 09:25:24;;;;;;;;;;;13.30;65.30;;;;;;5022692;28;20289;-60
2022/05/18 09:27:54;;;;;;;;;;;13.10;66.10;;;;;;5022046;28;19909;-59
2022/05/18 09:30:22;;;;;;;;;;;13.00;66.70;;;;;;5023824;28;19913;-59
2022/05/18 09:33:02;;;;;;;;;;;12.90;67.40;;;;;;5021935;28;20398;-60
2022/05/18 09:35:34;;;;;;;;;;;13.10;66.20;;;;;;5013330;28;19913;-59
2022/05/18 09:38:06;;;;;;;;;;;13.20;65.90;;;;;;5023680;28;20377;-60
2022/05/18 09:40:41;;;;;;;;;;;13.20;65.60;;;;;;5022803;28;19919;-59
2022/05/18 09:43:26;;;;;;;;;;;13.20;66.10;;;;;;5025171;28;19917;-59
2022/05/18 09:45:53;;;;;;;;;;;13.10;66.60;;;;;;5012401;28;20250;-59
2022/05/18 09:48:40;;;;;;;;;;;12.90;67.10;;;;;;5020152;28;20269;-60
2022/05/18 09:51:08;;;;;;;;;;;12.80;67.60;;;;;;5017014;28;19959;-62
2022/05/18 09:53:36;;;;;;;;;;;12.70;68.70;;;;;;5022549;28;19966;-60
2022/05/18 09:56:02;;;;;;;;;;;12.50;68.80;;;;;;5008493;28;20000;-60
2022/05/18 09:58:41;;;;;;;;;;;12.60;69.40;;;;;;5024222;28;20008;-59
2022/05/18 10:09:44;;;;;;;;;;;13.10;67.20;;;;;;5014395;28;19972;-59
2022/05/18 10:12:13;;;;;;;;;;;13.20;66.70;;;;;;5013565;28;19911;-60
2022/05/18 10:14:40;;;;;;;;;;;13.20;66.70;;;;;;5024310;28;20392;-59
2022/05/18 10:17:09;;;;;;;;;;;13.10;66.70;;;;;;5022878;28;20015;-60
2022/05/18 10:19:47;;;;;;;;;;;13.00;66.80;;;;;;5012489;28;19957;-60
2022/05/18 10:22:19;;;;;;;;;;;12.90;67.70;;;;;;5016164;28;19917;-59
2022/05/18 10:24:58;;;;;;;;;;;12.80;68.20;;;;;;5018077;28;20000;-59
2022/05/18 10:27:28;;;;;;;;;;;12.70;68.20;;;;;;5019975;28;19963;-61
2022/05/18 10:30:14;;;;;;;;;;;12.60;67.90;;;;;;5020318;28;19951;-61
2022/05/18 10:33:01;;;;;;;;;;;12.50;68.20;;;;;;5013372;28;20349;-60
2022/05/18 10:35:35;;;;;;;;;;;12.40;68.10;;;;;;5019206;28;20364;-59
2022/05/18 10:38:03;;;;;;;;;;;12.20;69.10;;;;;;5018410;28;19931;-60
2022/05/18 10:40:30;;;;;;;;;;;12.30;68.70;;;;;;5015458;28;19912;-61
2022/05/18 10:43:12;;;;;;;;;;;12.20;68.60;;;;;;5022615;28;19916;-61
2022/05/18 10:45:39;;;;;;;;;;;12.20;68.40;;;;;;5022952;28;19955;-60
2022/05/18 10:48:17;;;;;;;;;;;12.10;68.80;;;;;;5015529;28;19913;-61
2022/05/18 10:50:45;;;;;;;;;;;12.20;68.50;;;;;;5019861;28;19912;-60
2022/05/18 10:53:17;;;;;;;;;;;12.30;67.40;;;;;;5023214;28;19913;-59
2022/05/18 10:55:56;;;;;;;;;;;12.30;67.20;;;;;;5022221;28;20692;-60
2022/05/18 10:58:24;;;;;;;;;;;12.30;67.10;;;;;;5017669;28;19947;-60
2022/05/18 11:00:53;;;;;;;;;;;12.30;66.90;;;;;;5015439;28;19910;-60
2022/05/18 11:03:29;;;;;;;;;;;12.30;67.10;;;;;;5017333;28;19951;-59
2022/05/18 11:06:01;;;;;;;;;;;12.40;66.70;;;;;;5008612;28;19913;-60
2022/05/18 11:08:30;;;;;;;;;;;12.50;66.40;;;;;;5018442;28;19928;-59
2022/05/18 11:10:57;;;;;;;;;;;12.50;66.70;;;;;;5011530;28;19913;-59
2022/05/18 11:13:37;;;;;;;;;;;12.50;65.90;;;;;;5018962;28;19913;-59
2022/05/18 11:16:15;;;;;;;;;;;12.50;66.50;;;;;;5022018;28;19917;-59
2022/05/18 11:18:49;;;;;;;;;;;12.40;66.60;;;;;;5019923;28;19917;-59
2022/05/18 11:21:18;;;;;;;;;;;12.40;66.10;;;;;;5023942;28;20032;-59
2022/05/18 11:23:51;;;;;;;;;;;12.40;67.10;;;;;;5025181;28;19913;-59
2022/05/18 11:26:26;;;;;;;;;;;12.30;66.40;;;;;;5021224;28;20435;-58
2022/05/18 11:29:01;;;;;;;;;;;12.20;67.60;;;;;;5020820;28;19935;-59
2022/05/18 11:31:37;;;;;;;;;;;12.10;68.40;;;;;;5022216;28;20377;-59
2022/05/18 11:34:12;;;;;;;;;;;11.90;68.40;;;;;;5012596;28;19913;-59
2022/05/18 11:36:57;;;;;;;;;;;11.70;69.10;;;;;;5023672;28;20114;-59
2022/05/18 11:39:24;;;;;;;;;;;11.70;68.60;;;;;;5016075;28;19967;-59
2022/05/18 11:41:53;;;;;;;;;;;11.60;68.80;;;;;;5026910;28;19913;-59
2022/05/18 11:44:36;;;;;;;;;;;11.70;68.70;;;;;;5024816;28;19920;-59
2022/05/18 11:47:17;;;;;;;;;;;11.70;69.10;;;;;;5023121;28;19913;-58
2022/05/18 11:49:54;;;;;;;;;;;11.70;69.90;;;;;;5014106;28;19913;-59
2022/05/18 11:52:43;;;;;;;;;;;11.50;70.20;;;;;;5016184;28;19914;-59
2022/05/18 11:55:36;;;;;;;;;;;11.20;71.80;;;;;;5015136;28;19920;-60
2022/05/18 11:58:18;;;;;;;;;;;11.00;72.40;;;;;;5009663;28;19974;-57
2022/05/18 12:00:58;;;;;;;;;;;11.00;72.80;;;;;;5016460;28;19913;-58
2022/05/18 12:03:30;;;;;;;;;;;11.00;73.40;;;;;;5013235;28;20446;-60
2022/05/18 12:06:16;;;;;;;;;;;10.80;73.60;;;;;;5017893;28;20329;-60
2022/05/18 12:09:02;;;;;;;;;;;10.60;75.00;;;;;;5025820;28;19924;-60
2022/05/18 12:11:29;;;;;;;;;;;10.40;75.70;;;;;;5020050;28;20004;-60
2022/05/18 12:13:55;;;;;;;;;;;10.30;76.00;;;;;;5024564;28;20284;-60
2022/05/18 12:16:25;;;;;;;;;;;10.30;76.20;;;;;;5026947;28;19913;-60
2022/05/18 12:19:08;;;;;;;;;;;10.30;75.50;;;;;;5020597;28;19928;-59
2022/05/18 12:21:41;;;;;;;;;;;10.40;74.30;;;;;;5015886;28;20560;-58
2022/05/18 12:24:09;;;;;;;;;;;10.40;74.80;;;;;;5027854;28;19916;-61
2022/05/18 12:26:39;;;;;;;;;;;10.50;74.40;;;;;;5027438;28;19913;-59
2022/05/18 12:29:06;;;;;;;;;;;10.50;74.10;;;;;;5015024;28;19992;-59
2022/05/18 12:31:34;;;;;;;;;;;10.40;73.50;;;;;;5012956;28;19959;-60
2022/05/18 12:34:04;;;;;;;;;;;10.30;74.30;;;;;;5016347;28;19974;-60
2022/05/18 12:36:41;;;;;;;;;;;10.30;74.80;;;;;;5024157;28;19967;-59
2022/05/18 12:39:12;;;;;;;;;;;10.20;75.50;;;;;;5013679;28;19967;-59
2022/05/18 12:41:44;;;;;;;;;;;10.20;74.40;;;;;;5020408;28;19967;-60
2022/05/18 12:44:12;;;;;;;;;;;10.10;74.50;;;;;;5017786;28;19917;-59
2022/05/18 12:46:52;;;;;;;;;;;10.20;74.30;;;;;;5024909;28;19920;-60
2022/05/18 12:49:41;;;;;;;;;;;10.20;73.20;;;;;;5018390;28;19914;-59
2022/05/18 12:52:20;;;;;;;;;;;10.30;73.90;;;;;;5018448;28;19937;-59
2022/05/18 12:54:53;;;;;;;;;;;10.50;71.70;;;;;;5019221;28;19980;-59
2022/05/18 12:57:23;;;;;;;;;;;10.70;70.30;;;;;;5019615;28;19917;-59
2022/05/18 13:00:21;;;;;;;;;;;10.80;70.50;;;;;;5018898;28;19913;-59
2022/05/18 13:02:49;;;;;;;;;;;10.90;69.40;;;;;;5014680;28;19920;-59
2022/05/18 13:05:31;;;;;;;;;;;10.90;70.00;;;;;;5018860;28;19913;-59
2022/05/18 13:08:09;;;;;;;;;;;10.90;69.10;;;;;;5009157;28;19960;-59
2022/05/18 13:10:37;;;;;;;;;;;10.80;68.80;;;;;;5010962;28;19919;-59
2022/05/18 13:13:24;;;;;;;;;;;10.70;69.50;;;;;;5016855;28;19914;-59
2022/05/18 13:16:00;;;;;;;;;;;10.60;69.90;;;;;;5015889;28;19913;-60
2022/05/18 13:18:29;;;;;;;;;;;10.50;70.80;;;;;;5024844;28;19921;-59
2022/05/18 13:21:08;;;;;;;;;;;10.40;70.60;;;;;;5011460;28;20290;-59
2022/05/18 13:23:42;;;;;;;;;;;10.40;71.00;;;;;;5023867;28;19919;-59
2022/05/18 13:26:15;;;;;;;;;;;10.20;71.60;;;;;;5027941;28;19909;-61
2022/05/18 13:28:41;;;;;;;;;;;10.00;72.40;;;;;;5027124;28;19932;-60
2022/05/18 13:31:09;;;;;;;;;;;9.80;73.60;;;;;;5026822;28;19909;-61
2022/05/18 13:33:38;;;;;;;;;;;9.60;73.50;;;;;;5026042;28;20265;-60
2022/05/18 13:36:05;;;;;;;;;;;9.40;74.80;;;;;;5026265;28;19913;-60
2022/05/18 13:38:32;;;;;;;;;;;9.20;75.50;;;;;;5022981;28;20765;-59
2022/05/18 13:41:00;;;;;;;;;;;9.00;76.90;;;;;;5007655;28;19909;-61
2022/05/18 13:43:30;;;;;;;;;;;8.70;78.10;;;;;;5027043;28;20433;-59
2022/05/18 13:46:00;;;;;;;;;;;8.60;79.60;;;;;;5026720;28;20004;-60
2022/05/18 13:48:27;;;;;;;;;;;8.50;79.50;;;;;;5027348;28;20365;-59
2022/05/18 13:50:58;;;;;;;;;;;8.30;79.50;;;;;;5025416;28;19913;-57
2022/05/18 13:53:24;;;;;;;;;;;8.10;79.80;;;;;;5020846;28;19917;-59
2022/05/18 13:55:54;;;;;;;;;;;8.00;82.40;;;;;;5018898;28;19916;-59
2022/05/18 13:58:21;;;;;;;;;;;7.90;82.80;;;;;;5007535;28;20013;-59
2022/05/18 14:00:51;;;;;;;;;;;7.80;82.90;;;;;;5016873;28;20000;-58
2022/05/18 14:03:19;;;;;;;;;;;7.70;83.20;;;;;;5028100;28;19916;-59
2022/05/18 14:05:46;;;;;;;;;;;7.60;84.30;;;;;;5029173;28;19909;-59
2022/05/18 14:08:30;;;;;;;;;;;7.40;85.40;;;;;;5029020;28;19917;-58
2022/05/18 14:10:58;;;;;;;;;;;7.30;86.40;;;;;;5023093;28;20028;-59
2022/05/18 14:13:25;;;;;;;;;;;7.30;87.10;;;;;;5018107;28;20065;-59
2022/05/18 14:15:53;;;;;;;;;;;7.20;87.20;;;;;;5028829;28;19912;-59
2022/05/18 14:18:22;;;;;;;;;;;7.10;87.80;;;;;;5009488;28;19966;-58
2022/05/18 14:20:50;;;;;;;;;;;7.00;88.60;;;;;;5009301;28;20011;-58
2022/05/18 14:23:20;;;;;;;;;;;7.00;88.90;;;;;;5011884;28;19970;-58
2022/05/18 14:25:50;;;;;;;;;;;6.90;87.80;;;;;;5028879;28;19916;-58
2022/05/18 14:28:20;;;;;;;;;;;6.80;87.90;;;;;;5029160;28;20354;-59
2022/05/18 14:30:47;;;;;;;;;;;6.70;88.30;;;;;;5029032;28;20012;-59
2022/05/18 14:33:32;;;;;;;;;;;6.60;88.50;;;;;;5028732;28;19958;-60
2022/05/18 14:36:02;;;;;;;;;;;6.50;89.50;;;;;;5029094;28;19905;-59
2022/05/18 14:38:30;;;;;;;;;;;6.40;90.20;;;;;;5028371;28;20016;-59
2022/05/18 14:40:58;;;;;;;;;;;6.40;90.50;;;;;;5027925;28;19909;-59
2022/05/18 14:43:29;;;;;;;;;;;6.30;90.60;;;;;;5026836;28;19920;-59
2022/05/18 14:46:05;;;;;;;;;;;6.30;91.00;;;;;;5027717;28;20270;-59
2022/05/18 14:48:54;;;;;;;;;;;6.30;91.20;;;;;;5030456;28;19970;-59
2022/05/18 14:51:27;;;;;;;;;;;6.40;91.90;;;;;;5028711;28;19920;-59
2022/05/18 14:54:13;;;;;;;;;;;6.60;92.90;;;;;;5032527;28;19909;-57
2022/05/18 14:56:43;;;;;;;;;;;6.80;92.40;;;;;;5031984;28;19913;-59
2022/05/18 14:59:12;;;;;;;;;;;7.00;92.20;;;;;;5033096;28;19924;-59